createdAt,value
2022-08-07T00:03:21.283Z,102728.00
2022-08-07T00:08:48.911Z,102732.31
2022-08-07T00:14:13.984Z,102733.28
2022-08-07T00:20:01.461Z,102735.94
2022-08-07T00:25:27.562Z,102734.38
2022-08-07T00:31:37.511Z,102731.78
2022-08-07T00:37:01.786Z,102722.25
2022-08-07T00:42:29.021Z,102722.44
2022-08-07T00:48:09.948Z,102715.44
2022-08-07T00:53:38.954Z,102722.56
2022-08-07T00:59:13.474Z,102715.59
2022-08-07T01:04:43.428Z,102718.28
2022-08-07T01:10:11.263Z,102705.19
2022-08-07T01:16:00.854Z,102707.91
2022-08-07T01:21:26.030Z,102681.78
2022-08-07T01:26:53.779Z,102702.75
2022-08-07T01:32:19.009Z,102702.88
2022-08-07T01:37:47.618Z,102703.88
2022-08-07T01:43:13.100Z,102706.50
2022-08-07T01:48:41.032Z,102697.94
2022-08-07T01:54:12.985Z,102688.34
2022-08-07T01:59:56.072Z,102688.41
2022-08-07T02:05:48.192Z,102687.56
2022-08-07T02:12:02.584Z,102656.31
2022-08-07T02:16:57.967Z,102690.31
2022-08-07T02:22:25.817Z,102692.97
2022-08-07T02:27:53.022Z,102691.28
2022-08-07T02:33:18.125Z,102685.25
2022-08-07T02:38:50.586Z,102684.44
2022-08-07T02:44:23.648Z,102680.06
2022-08-07T02:49:56.260Z,102673.03
2022-08-07T02:55:28.243Z,102669.66
2022-08-07T03:01:19.051Z,102669.75
2022-08-07T03:06:55.216Z,102666.31
2022-08-07T03:12:21.852Z,102661.22
2022-08-07T03:17:53.762Z,102666.34
2022-08-07T03:23:20.058Z,102668.13
2022-08-07T03:28:58.492Z,102671.75
2022-08-07T03:34:27.184Z,102676.16
2022-08-07T03:40:13.340Z,102654.25
2022-08-07T03:45:39.819Z,102652.50
2022-08-07T03:51:12.508Z,102652.59
2022-08-07T03:56:40.250Z,102662.25
2022-08-07T04:02:24.447Z,102658.13
2022-08-07T04:07:50.038Z,102651.28
2022-08-07T04:13:19.370Z,102645.13
2022-08-07T04:18:59.848Z,102657.38
2022-08-07T04:24:30.513Z,102656.53
2022-08-07T04:30:02.231Z,102670.53
2022-08-07T04:35:40.378Z,102669.69
2022-08-07T04:41:18.152Z,102669.75
2022-08-07T04:47:04.008Z,102667.97
2022-08-07T04:52:51.246Z,102672.31
2022-08-07T04:58:47.520Z,102675.78
2022-08-07T05:04:12.483Z,102644.44
2022-08-07T05:09:52.002Z,102680.91
2022-08-07T05:15:23.508Z,102675.66
2022-08-07T05:20:55.473Z,102674.72
2022-08-07T05:26:24.288Z,102675.53
2022-08-07T05:31:57.083Z,102676.38
2022-08-07T05:37:25.641Z,102681.56
2022-08-07T05:42:56.264Z,102683.28
2022-08-07T05:48:26.439Z,102682.25
2022-08-07T05:54:12.053Z,102685.75
2022-08-07T05:59:38.998Z,102686.50
2022-08-07T06:05:28.316Z,102685.50
2022-08-07T06:10:55.115Z,102685.41
2022-08-07T06:16:21.419Z,102694.88
2022-08-07T06:22:14.842Z,102699.09
2022-08-07T06:27:59.700Z,102709.38
2022-08-07T06:33:16.111Z,102727.56
2022-08-07T06:38:51.204Z,102720.31
2022-08-07T06:44:24.119Z,102710.31
2022-08-07T06:49:51.987Z,102710.72
2022-08-07T06:55:33.996Z,102695.13
2022-08-07T07:01:11.119Z,102690.75
2022-08-07T07:06:39.418Z,102678.31
2022-08-07T07:12:31.428Z,102674.28
2022-08-07T07:18:02.117Z,102669.09
2022-08-07T07:24:09.092Z,102667.28
2022-08-07T07:30:09.103Z,102654.91
2022-08-07T07:35:23.649Z,102649.22
2022-08-07T07:40:48.231Z,102647.84
2022-08-07T07:46:38.022Z,102653.31
2022-08-07T07:51:59.740Z,102664.44
2022-08-07T07:57:50.410Z,102661.16
2022-08-07T08:03:16.560Z,102665.28
2022-08-07T08:08:42.399Z,102668.28
2022-08-07T08:14:05.662Z,102660.28
2022-08-07T08:20:18.006Z,102657.28
2022-08-07T08:25:42.805Z,102657.84
2022-08-07T08:31:22.750Z,102642.44
2022-08-07T08:36:58.038Z,102643.00
2022-08-07T08:42:27.314Z,102654.03
2022-08-07T08:47:57.672Z,102658.00
2022-08-07T08:53:29.291Z,102643.44
2022-08-07T08:58:54.926Z,102650.97
2022-08-07T09:04:26.050Z,102654.84
2022-08-07T09:10:03.190Z,102637.59
2022-08-07T09:16:20.036Z,102652.25
2022-08-07T09:21:58.045Z,102645.31
2022-08-07T09:27:28.779Z,102638.06
2022-08-07T09:33:05.273Z,102632.59
2022-08-07T09:38:53.445Z,102635.88
2022-08-07T09:44:32.982Z,102614.75
2022-08-07T09:50:18.510Z,102613.53
2022-08-07T09:56:03.259Z,102610.41
2022-08-07T10:01:51.301Z,102608.25
2022-08-07T10:07:52.287Z,102605.16
2022-08-07T10:14:00.304Z,102603.75
2022-08-07T10:19:45.483Z,102593.69
2022-08-07T10:25:22.871Z,102583.84
2022-08-07T10:30:57.488Z,102574.81
2022-08-07T10:36:36.155Z,102570.31
2022-08-07T10:42:09.793Z,102569.88
2022-08-07T10:47:53.755Z,102580.91
2022-08-07T10:53:27.522Z,102566.09
2022-08-07T10:58:59.913Z,102562.66
2022-08-07T11:04:34.930Z,102554.69
2022-08-07T11:10:10.932Z,102557.66
2022-08-07T11:15:37.402Z,102546.28
2022-08-07T11:21:05.897Z,102541.28
2022-08-07T11:26:35.136Z,102538.00
2022-08-07T11:32:07.414Z,102530.63
2022-08-07T11:38:10.213Z,102539.25
2022-08-07T11:44:11.509Z,102530.13
2022-08-07T11:50:18.621Z,102526.34
2022-08-07T11:56:25.936Z,102514.56
2022-08-07T12:01:59.678Z,102513.47
2022-08-07T12:07:27.271Z,102514.03
2022-08-07T12:12:56.565Z,102517.69
2022-08-07T12:18:29.823Z,102515.63
2022-08-07T12:24:06.983Z,102511.59
2022-08-07T12:29:42.550Z,102502.28
2022-08-07T12:35:10.696Z,102507.63
2022-08-07T12:40:47.539Z,102486.06
2022-08-07T12:46:26.494Z,102502.59
2022-08-07T12:52:12.208Z,102508.88
2022-08-07T12:58:00.646Z,102504.59
2022-08-07T13:04:02.432Z,102503.81
2022-08-07T13:10:19.706Z,102499.66
2022-08-07T13:15:23.527Z,102504.75
2022-08-07T13:20:58.915Z,102503.13
2022-08-07T13:26:31.095Z,102496.41
2022-08-07T13:32:06.267Z,102495.66
2022-08-07T13:37:59.073Z,102483.44
2022-08-07T13:43:26.099Z,102457.50
2022-08-07T13:49:01.036Z,102481.78
2022-08-07T13:54:30.742Z,102482.50
2022-08-07T14:00:02.354Z,102480.34
2022-08-07T14:05:37.939Z,102493.13
2022-08-07T14:11:15.481Z,102480.25
2022-08-07T14:16:50.634Z,102481.84
2022-08-07T14:22:19.219Z,102480.25
2022-08-07T14:28:12.874Z,102469.00
2022-08-07T14:33:45.043Z,102469.44
2022-08-07T14:39:12.522Z,102425.09
2022-08-07T14:45:00.145Z,102450.03
2022-08-07T14:50:51.623Z,102480.25
2022-08-07T14:56:29.565Z,102483.25
2022-08-07T15:01:54.537Z,102479.44
2022-08-07T15:07:25.200Z,102470.75
2022-08-07T15:13:13.824Z,102471.28
2022-08-07T15:18:40.205Z,102460.09
2022-08-07T15:25:15.779Z,102464.81
2022-08-07T15:36:01.673Z,102465.03
2022-08-07T15:42:43.603Z,102453.66
2022-08-07T15:47:16.794Z,102452.44
2022-08-07T15:52:43.914Z,102454.09
2022-08-07T15:58:21.062Z,102455.22
2022-08-07T16:03:58.484Z,102452.78
2022-08-07T16:09:42.021Z,102451.41
2022-08-07T16:15:55.029Z,102439.31
2022-08-07T16:21:56.790Z,102437.34
2022-08-07T16:27:01.190Z,102424.78
2022-08-07T16:32:34.596Z,102437.13
2022-08-07T16:38:11.792Z,102434.94
2022-08-07T16:44:46.325Z,102431.13
2022-08-07T16:50:36.124Z,102426.22
2022-08-07T16:56:09.784Z,102431.81
2022-08-07T17:01:41.242Z,102431.66
2022-08-07T17:07:15.638Z,102429.56
2022-08-07T17:12:45.229Z,102431.78
2022-08-07T17:24:25.064Z,102417.03
2022-08-07T17:30:14.458Z,102414.19
2022-08-07T17:35:57.052Z,102422.75
2022-08-07T17:42:02.165Z,102401.63
2022-08-07T17:47:42.260Z,102428.78
2022-08-07T17:53:59.845Z,102421.53
2022-08-07T17:59:11.238Z,102412.19
2022-08-07T18:04:49.436Z,102417.50
2022-08-07T18:10:32.377Z,102417.41
2022-08-07T18:16:04.704Z,102416.63
2022-08-07T18:21:51.529Z,102420.84
2022-08-07T18:27:22.959Z,102429.75
2022-08-07T18:33:19.151Z,102430.59
2022-08-07T18:40:08.568Z,102429.34
2022-08-07T18:45:44.275Z,102438.59
2022-08-07T18:51:08.386Z,102438.31
2022-08-07T18:56:38.469Z,102437.50
2022-08-07T19:02:32.701Z,102451.94
2022-08-07T19:08:02.237Z,102450.38
2022-08-07T19:13:38.513Z,102457.34
2022-08-07T19:19:05.341Z,102464.06
2022-08-07T19:24:43.139Z,102461.13
2022-08-07T19:31:00.297Z,102482.69
2022-08-07T19:35:57.824Z,102490.59
2022-08-07T19:41:44.416Z,102485.88
2022-08-07T19:47:10.885Z,102500.97
2022-08-07T19:52:42.582Z,102503.06
2022-08-07T19:58:28.117Z,102508.50
2022-08-07T20:03:53.232Z,102510.66
2022-08-07T20:10:12.515Z,102503.72
2022-08-07T20:15:33.155Z,102507.41
2022-08-07T20:21:02.218Z,102509.28
2022-08-07T20:26:32.629Z,102501.25
2022-08-07T20:32:22.628Z,102499.63
2022-08-07T20:37:57.734Z,102512.16
2022-08-07T20:43:27.420Z,102501.25
2022-08-07T20:49:00.742Z,102514.66
2022-08-07T20:54:37.510Z,102514.91
2022-08-07T21:00:09.379Z,102509.06
2022-08-07T21:05:54.418Z,102521.66
2022-08-07T21:11:40.337Z,102513.84
2022-08-07T21:18:04.070Z,102512.22
2022-08-07T21:23:19.536Z,102516.75
2022-08-07T21:28:55.219Z,102517.91
2022-08-07T21:34:32.349Z,102514.56
2022-08-07T21:40:01.087Z,102512.09
2022-08-07T21:46:07.983Z,102516.59
2022-08-07T21:51:20.442Z,102519.28
2022-08-07T21:57:04.215Z,102520.19
2022-08-07T22:02:34.280Z,102515.19
2022-08-07T22:07:59.931Z,102522.84
2022-08-07T22:13:50.992Z,102538.72
2022-08-07T22:19:20.093Z,102538.88
2022-08-07T22:25:02.763Z,102516.75
2022-08-07T22:30:29.942Z,102540.31
2022-08-07T22:36:00.824Z,102543.78
2022-08-07T22:41:29.175Z,102551.81
2022-08-07T22:47:33.045Z,102553.72
2022-08-07T22:54:06.493Z,102548.72
2022-08-07T22:59:54.406Z,102541.25
2022-08-07T23:06:07.536Z,102546.38
2022-08-07T23:11:41.158Z,102508.22
2022-08-07T23:17:32.378Z,102543.94
2022-08-07T23:24:04.256Z,102546.88
2022-08-07T23:30:36.086Z,102555.03
2022-08-07T23:35:39.502Z,102544.81
2022-08-07T23:41:33.484Z,102546.84
2022-08-07T23:47:46.496Z,102551.25
2022-08-07T23:53:19.291Z,102552.19
2022-08-07T23:58:56.238Z,102547.00
